CYXX

Abbotsford Airport

Abbotsford, , Canada
METAR CYXX 152200Z 22007KT 180V240 10SM SKC 29/13 A2989 RMK FU4 SLP122 DENSITY ALT 1900FT
Observed Flight Rules
Aug-15 @ 22:00 UTC (26 minutes ago) Visual Flight Rules
Wind Visibility Clouds
220° at 7 knots 10 miles
  • Clear skies
Temperatures Readings
Current 29°C / 84°F
Dewpoint 13°C / 55°F
Humidity 37%
Altimeter 29.89" Hg
Pressure 1012.2 hPa
Elevation 58
METAR CYXX 152200Z 22007KT 180V240 10SM SKC 29/13 A2989 RMK FU4 SLP122 DENSITY ALT 1900FT
Observed Flight Rules
Aug-15 @ 22:00 UTC
(26 minutes ago)
VFR
Wind Visibility
220° at 7 knots 10 miles
Clouds
  • Clear skies
Temperature Dewpoint
29°C / 84°F 13°C / 55°F
Humidity Altimeter Pressure
37% 29.89" Hg 1012.2 hPa